createdAt,value
2023-05-19T00:01:43.741Z,11.62
2023-05-19T00:04:14.703Z,11.58
2023-05-19T00:06:49.097Z,11.54
2023-05-19T00:09:17.838Z,11.44
2023-05-19T00:11:46.967Z,11.32
2023-05-19T00:14:15.650Z,11.27
2023-05-19T00:16:44.964Z,11.22
2023-05-19T00:19:13.524Z,11.22
2023-05-19T00:21:42.198Z,11.17
2023-05-19T00:24:13.105Z,11.16
2023-05-19T00:26:41.285Z,11.29
2023-05-19T00:29:09.531Z,11.24
2023-05-19T00:31:38.141Z,11.43
2023-05-19T00:34:06.729Z,11.32
2023-05-19T00:36:35.292Z,11.36
2023-05-19T00:39:04.624Z,11.31
2023-05-19T00:41:34.464Z,11.33
2023-05-19T00:44:02.771Z,11.34
2023-05-19T00:46:31.605Z,11.26
2023-05-19T00:48:59.767Z,11.35
2023-05-19T00:51:31.248Z,11.35
2023-05-19T00:54:01.119Z,11.22
2023-05-19T00:56:29.952Z,11.33
2023-05-19T00:59:00.379Z,11.15
2023-05-19T01:01:29.162Z,11.16
2023-05-19T01:03:59.492Z,11.15
2023-05-19T01:06:29.590Z,11.22
2023-05-19T01:08:58.710Z,11.21
2023-05-19T01:11:27.309Z,11.13
2023-05-19T01:13:57.556Z,11.13
2023-05-19T01:16:32.121Z,11.10
2023-05-19T01:19:12.323Z,11.06
2023-05-19T01:22:16.553Z,11.00
2023-05-19T01:25:08.839Z,10.98
2023-05-19T01:27:48.722Z,10.95
2023-05-19T01:30:34.600Z,10.95
2023-05-19T01:33:06.625Z,10.82
2023-05-19T01:35:39.053Z,10.91
2023-05-19T01:38:10.240Z,11.02
2023-05-19T01:40:40.186Z,10.81
2023-05-19T01:43:10.551Z,10.75
2023-05-19T01:45:41.688Z,10.76
2023-05-19T01:48:12.345Z,10.76
2023-05-19T01:50:40.389Z,10.66
2023-05-19T01:53:09.392Z,10.61
2023-05-19T01:55:46.208Z,10.61
2023-05-19T01:58:21.891Z,10.67
2023-05-19T02:00:58.603Z,10.64
2023-05-19T02:03:48.709Z,10.65
2023-05-19T02:06:28.635Z,10.62
2023-05-19T02:09:03.903Z,10.59
2023-05-19T02:11:38.968Z,10.53
2023-05-19T02:14:14.739Z,10.54
2023-05-19T02:16:46.745Z,10.49
2023-05-19T02:19:23.062Z,10.49
2023-05-19T02:21:51.379Z,10.40
2023-05-19T02:24:22.904Z,10.43
2023-05-19T02:26:52.137Z,10.43
2023-05-19T02:29:21.407Z,10.40
2023-05-19T02:31:53.274Z,10.50
2023-05-19T02:34:21.436Z,10.36
2023-05-19T02:36:50.657Z,10.38
2023-05-19T02:39:18.862Z,10.29
2023-05-19T02:41:47.392Z,10.26
2023-05-19T02:44:15.930Z,10.01
2023-05-19T02:46:44.215Z,9.94
2023-05-19T02:49:13.889Z,9.83
2023-05-19T02:51:42.512Z,9.60
2023-05-19T02:54:11.311Z,9.33
2023-05-19T02:56:40.797Z,9.28
2023-05-19T02:59:09.342Z,9.20
2023-05-19T03:01:40.428Z,9.14
2023-05-19T03:04:09.136Z,9.08
2023-05-19T03:06:39.440Z,9.03
2023-05-19T03:09:07.686Z,8.98
2023-05-19T03:11:36.387Z,8.88
2023-05-19T03:14:06.238Z,8.79
2023-05-19T03:16:34.668Z,8.73
2023-05-19T03:19:03.320Z,8.69
2023-05-19T03:21:32.053Z,8.69
2023-05-19T03:24:03.418Z,8.61
2023-05-19T03:26:31.549Z,8.53
2023-05-19T03:29:00.076Z,8.50
2023-05-19T03:31:29.157Z,8.46
2023-05-19T03:33:58.553Z,8.43
2023-05-19T03:36:32.161Z,8.48
2023-05-19T03:39:03.214Z,8.32
2023-05-19T03:41:31.908Z,8.17
2023-05-19T03:44:00.153Z,8.07
2023-05-19T03:46:28.626Z,8.08
2023-05-19T03:49:09.246Z,8.04
2023-05-19T03:51:57.423Z,7.94
2023-05-19T03:54:34.796Z,7.97
2023-05-19T03:57:03.628Z,8.24
2023-05-19T03:59:33.073Z,8.25
2023-05-19T04:02:01.552Z,8.30
2023-05-19T04:04:30.953Z,8.25
2023-05-19T04:06:59.639Z,8.18
2023-05-19T04:09:28.579Z,8.19
2023-05-19T04:11:58.814Z,8.16
2023-05-19T04:14:27.074Z,8.10
2023-05-19T04:16:55.879Z,8.06
2023-05-19T04:19:25.902Z,8.05
2023-05-19T04:21:54.209Z,8.04
2023-05-19T04:24:22.843Z,8.10
2023-05-19T04:26:52.149Z,8.08
2023-05-19T04:29:24.350Z,8.08
2023-05-19T04:31:52.927Z,8.17
2023-05-19T04:34:23.051Z,8.26
2023-05-19T04:36:53.389Z,8.11
2023-05-19T04:39:24.245Z,8.09
2023-05-19T04:41:55.125Z,8.11
2023-05-19T04:44:24.804Z,8.07
2023-05-19T04:46:54.552Z,8.08
2023-05-19T04:49:25.326Z,8.28
2023-05-19T04:51:55.793Z,8.29
2023-05-19T04:54:28.843Z,8.35
2023-05-19T04:56:57.492Z,8.42
2023-05-19T04:59:30.840Z,8.50
2023-05-19T05:01:59.518Z,8.53
2023-05-19T05:04:31.446Z,8.66
2023-05-19T05:07:00.396Z,8.75
2023-05-19T05:09:29.870Z,8.75
2023-05-19T05:12:02.803Z,8.87
2023-05-19T05:14:34.786Z,8.88
2023-05-19T05:17:05.567Z,8.87
2023-05-19T05:19:37.490Z,8.91
2023-05-19T05:22:09.932Z,8.95
2023-05-19T05:24:49.887Z,8.99
2023-05-19T05:27:21.915Z,9.16
2023-05-19T05:29:59.459Z,9.18
2023-05-19T05:32:30.755Z,9.25
2023-05-19T05:35:10.201Z,9.45
2023-05-19T05:37:42.640Z,9.41
2023-05-19T05:40:11.758Z,9.60
2023-05-19T05:42:40.870Z,9.77
2023-05-19T05:45:11.661Z,10.03
2023-05-19T05:47:41.507Z,10.35
2023-05-19T05:50:11.762Z,10.53
2023-05-19T05:52:42.759Z,10.70
2023-05-19T05:55:12.163Z,10.98
2023-05-19T05:57:41.842Z,11.32
2023-05-19T06:00:15.924Z,11.46
2023-05-19T06:02:47.461Z,11.62
2023-05-19T06:05:18.454Z,11.72
2023-05-19T06:07:49.027Z,11.81
2023-05-19T06:10:32.085Z,12.02
2023-05-19T06:13:01.268Z,12.08
2023-05-19T06:15:31.380Z,12.03
2023-05-19T06:18:08.445Z,12.13
2023-05-19T06:20:36.641Z,12.35
2023-05-19T06:23:06.943Z,12.21
2023-05-19T06:25:35.370Z,12.36
2023-05-19T06:28:03.626Z,12.57
2023-05-19T06:30:33.648Z,13.17
2023-05-19T06:33:22.037Z,13.55
2023-05-19T06:35:52.014Z,13.80
2023-05-19T06:38:23.706Z,13.87
2023-05-19T06:40:52.709Z,14.42
2023-05-19T06:43:21.204Z,14.59
2023-05-19T06:45:58.640Z,15.00
2023-05-19T06:48:30.437Z,15.61
2023-05-19T06:51:00.348Z,15.73
2023-05-19T06:53:29.254Z,15.57
2023-05-19T06:55:59.804Z,15.78
2023-05-19T06:58:31.920Z,15.89
2023-05-19T07:01:04.659Z,16.49
2023-05-19T07:03:38.351Z,16.82
2023-05-19T07:06:08.303Z,16.73
2023-05-19T07:08:38.620Z,17.01
2023-05-19T07:11:09.702Z,16.90
2023-05-19T07:13:38.237Z,17.31
2023-05-19T07:16:08.663Z,16.85
2023-05-19T07:18:37.368Z,17.18
2023-05-19T07:21:07.436Z,16.88
2023-05-19T07:23:36.340Z,16.84
2023-05-19T07:26:04.703Z,17.24
2023-05-19T07:28:34.388Z,17.69
2023-05-19T07:31:02.518Z,17.87
2023-05-19T07:33:32.152Z,17.92
2023-05-19T07:36:01.340Z,17.82
2023-05-19T07:38:29.461Z,17.54
2023-05-19T07:40:57.761Z,17.49
2023-05-19T07:43:26.228Z,17.51
2023-05-19T07:45:56.264Z,17.39
2023-05-19T07:48:26.109Z,17.92
2023-05-19T07:50:55.885Z,18.05
2023-05-19T07:53:24.623Z,18.41
2023-05-19T07:55:52.964Z,18.48
2023-05-19T07:58:21.168Z,17.92
2023-05-19T08:00:49.316Z,17.44
2023-05-19T08:03:18.378Z,18.40
2023-05-19T08:05:46.989Z,18.75
2023-05-19T08:08:17.412Z,19.00
2023-05-19T08:10:45.694Z,18.96
2023-05-19T08:13:14.030Z,18.85
2023-05-19T08:15:42.733Z,19.73
2023-05-19T08:18:11.179Z,19.85
2023-05-19T08:20:39.755Z,19.84
2023-05-19T08:23:07.954Z,20.41
2023-05-19T08:25:37.886Z,20.42
2023-05-19T08:28:06.813Z,19.66
2023-05-19T08:30:35.352Z,20.05
2023-05-19T08:33:03.809Z,20.29
2023-05-19T08:35:32.250Z,20.21
2023-05-19T08:38:00.685Z,19.45
2023-05-19T08:40:31.917Z,19.40
2023-05-19T08:43:01.941Z,19.48
2023-05-19T08:45:31.220Z,19.63
2023-05-19T08:48:00.291Z,19.41
2023-05-19T08:50:34.483Z,19.56
2023-05-19T08:53:18.113Z,19.28
2023-05-19T08:56:03.094Z,19.74
2023-05-19T08:58:34.596Z,19.67
2023-05-19T09:01:04.474Z,19.23
2023-05-19T09:03:39.031Z,19.74
2023-05-19T09:06:09.954Z,19.94
2023-05-19T09:08:40.153Z,19.87
2023-05-19T09:11:11.040Z,20.33
2023-05-19T09:13:41.264Z,19.83
2023-05-19T09:16:11.192Z,20.36
2023-05-19T09:18:41.434Z,20.34
2023-05-19T09:21:11.210Z,20.34
2023-05-19T09:23:40.861Z,19.97
2023-05-19T09:26:09.055Z,20.16
2023-05-19T09:28:38.850Z,19.70
2023-05-19T09:31:10.551Z,19.77
2023-05-19T09:33:41.050Z,19.08
2023-05-19T09:36:11.709Z,19.83
2023-05-19T09:38:42.560Z,20.07
2023-05-19T09:41:10.968Z,20.86
2023-05-19T09:43:39.111Z,20.61
2023-05-19T09:46:12.160Z,19.57
2023-05-19T09:48:42.682Z,20.63
2023-05-19T09:51:11.747Z,20.18
2023-05-19T09:53:40.670Z,20.33
2023-05-19T09:56:12.462Z,20.17
2023-05-19T09:58:43.106Z,20.25
2023-05-19T10:01:13.171Z,19.94
2023-05-19T10:03:43.113Z,19.63
2023-05-19T10:06:15.526Z,19.23
2023-05-19T10:08:45.499Z,19.29
2023-05-19T10:11:14.294Z,19.56
2023-05-19T10:13:43.693Z,19.77
2023-05-19T10:16:16.546Z,20.01
2023-05-19T10:18:45.114Z,19.81
2023-05-19T10:21:15.098Z,19.96
2023-05-19T10:23:44.465Z,20.37
2023-05-19T10:26:13.920Z,20.97
2023-05-19T10:28:44.811Z,21.32
2023-05-19T10:31:21.440Z,21.09
2023-05-19T10:34:04.229Z,21.10
2023-05-19T10:36:49.980Z,21.00
2023-05-19T10:39:22.423Z,21.08
2023-05-19T10:42:02.215Z,21.62
2023-05-19T10:44:42.125Z,22.18
2023-05-19T10:47:12.760Z,23.14
2023-05-19T10:49:42.277Z,23.29
2023-05-19T10:52:23.042Z,22.10
2023-05-19T10:54:54.533Z,22.02
2023-05-19T10:57:27.664Z,22.11
2023-05-19T10:59:57.222Z,23.06
2023-05-19T11:02:55.999Z,22.36
2023-05-19T11:05:30.289Z,21.87
2023-05-19T11:08:03.052Z,22.56
2023-05-19T11:10:32.254Z,22.91
2023-05-19T11:13:02.945Z,22.41
2023-05-19T11:15:36.009Z,21.78
2023-05-19T11:18:05.874Z,22.01
2023-05-19T11:20:35.055Z,22.16
2023-05-19T11:23:08.942Z,21.66
2023-05-19T11:25:48.597Z,22.17
2023-05-19T11:28:19.314Z,22.00
2023-05-19T11:30:51.665Z,22.11
2023-05-19T11:33:27.692Z,22.59
2023-05-19T11:35:58.911Z,22.69
2023-05-19T11:38:28.391Z,22.27
2023-05-19T11:40:57.450Z,22.35
2023-05-19T11:43:26.259Z,21.36
2023-05-19T11:45:57.049Z,21.10
2023-05-19T11:48:27.524Z,21.80
2023-05-19T11:50:57.100Z,22.40
2023-05-19T11:53:25.141Z,22.77
2023-05-19T11:55:53.634Z,23.90
2023-05-19T11:58:26.870Z,23.91
2023-05-19T12:00:55.395Z,22.98
2023-05-19T12:03:28.783Z,23.18
2023-05-19T12:05:58.860Z,22.91
2023-05-19T12:08:30.736Z,22.69
2023-05-19T12:10:59.129Z,22.70
2023-05-19T12:13:28.643Z,22.05
2023-05-19T12:16:00.989Z,21.81
2023-05-19T12:18:31.884Z,21.63
2023-05-19T12:21:01.431Z,21.45
2023-05-19T12:23:30.985Z,21.53
2023-05-19T12:25:59.726Z,21.79
2023-05-19T12:28:31.380Z,22.20
2023-05-19T12:31:00.441Z,21.78
2023-05-19T12:33:28.646Z,22.09
2023-05-19T12:35:57.324Z,21.69
2023-05-19T12:38:26.989Z,21.05
2023-05-19T12:40:59.534Z,20.27
2023-05-19T12:43:28.105Z,20.90
2023-05-19T12:45:56.191Z,20.69
2023-05-19T12:48:24.550Z,21.18
2023-05-19T12:50:53.945Z,21.18
2023-05-19T12:53:22.301Z,21.46
2023-05-19T12:55:53.895Z,21.49
2023-05-19T12:58:23.315Z,21.34
2023-05-19T13:00:52.818Z,20.83
2023-05-19T13:03:23.048Z,20.74
2023-05-19T13:05:52.589Z,20.54
2023-05-19T13:08:21.866Z,20.95
2023-05-19T13:10:51.575Z,20.75
2023-05-19T13:13:19.832Z,20.60
2023-05-19T13:15:49.482Z,20.59
2023-05-19T13:18:18.661Z,21.59
2023-05-19T13:20:49.383Z,21.85
2023-05-19T13:23:18.836Z,22.46
2023-05-19T13:25:50.643Z,22.70
2023-05-19T13:28:20.449Z,21.46
2023-05-19T13:30:49.568Z,21.46
2023-05-19T13:33:18.187Z,21.69
2023-05-19T13:35:46.433Z,22.52
2023-05-19T13:38:15.073Z,22.09
2023-05-19T13:40:43.806Z,22.20
2023-05-19T13:43:12.410Z,22.20
2023-05-19T13:45:42.765Z,22.63
2023-05-19T13:48:11.769Z,22.97
2023-05-19T13:50:39.855Z,23.08
2023-05-19T13:53:08.754Z,21.63
2023-05-19T13:55:37.177Z,21.14
2023-05-19T13:58:06.474Z,20.26
2023-05-19T14:00:36.315Z,20.80
2023-05-19T14:03:07.485Z,20.75
2023-05-19T14:05:35.885Z,20.77
2023-05-19T14:08:06.581Z,21.37
2023-05-19T14:10:35.094Z,20.83
2023-05-19T14:13:30.360Z,21.38
2023-05-19T14:15:53.027Z,20.05
2023-05-19T14:18:25.410Z,20.67
2023-05-19T14:20:55.092Z,21.12
2023-05-19T14:23:23.642Z,21.44
2023-05-19T14:25:51.827Z,21.38
2023-05-19T14:28:20.058Z,20.92
2023-05-19T14:30:48.484Z,20.86
2023-05-19T14:33:16.883Z,20.90
2023-05-19T14:35:48.637Z,21.38
2023-05-19T14:38:17.507Z,21.23
2023-05-19T14:40:48.613Z,20.97
2023-05-19T14:43:18.369Z,20.41
2023-05-19T14:45:46.482Z,19.89
2023-05-19T14:48:15.074Z,20.64
2023-05-19T14:50:43.597Z,20.56
2023-05-19T14:53:13.757Z,20.95
2023-05-19T14:55:42.561Z,21.27
2023-05-19T14:58:26.836Z,20.70
2023-05-19T15:01:00.366Z,20.38
2023-05-19T15:03:29.069Z,20.47
2023-05-19T15:05:57.611Z,20.28
2023-05-19T15:08:27.973Z,20.19
2023-05-19T15:10:56.762Z,20.14
2023-05-19T15:13:26.648Z,20.55
2023-05-19T15:16:08.422Z,20.82
2023-05-19T15:18:44.116Z,20.66
2023-05-19T15:21:12.521Z,19.85
2023-05-19T15:23:42.845Z,20.34
2023-05-19T15:26:11.370Z,20.97
2023-05-19T15:28:39.836Z,20.65
2023-05-19T15:31:08.951Z,20.96
2023-05-19T15:33:37.908Z,21.18
2023-05-19T15:36:07.010Z,21.39
2023-05-19T15:38:36.994Z,21.49
2023-05-19T15:41:10.150Z,21.45
2023-05-19T15:43:38.707Z,21.76
2023-05-19T15:46:07.116Z,21.08
2023-05-19T15:48:36.253Z,21.61
2023-05-19T15:51:04.750Z,21.13
2023-05-19T15:53:33.220Z,21.23
2023-05-19T15:56:02.659Z,21.27
2023-05-19T15:58:34.206Z,20.54
2023-05-19T16:01:03.835Z,20.85
2023-05-19T16:03:32.468Z,20.77
2023-05-19T16:06:01.157Z,20.92
2023-05-19T16:08:33.469Z,20.93
2023-05-19T16:11:02.194Z,21.15
2023-05-19T16:13:33.636Z,21.35
2023-05-19T16:16:03.867Z,21.12
2023-05-19T16:18:42.719Z,20.84
2023-05-19T16:21:11.132Z,20.89
2023-05-19T16:23:39.359Z,20.11
2023-05-19T16:26:07.968Z,20.34
2023-05-19T16:28:36.622Z,19.93
2023-05-19T16:31:06.448Z,19.90
2023-05-19T16:33:34.580Z,19.80
2023-05-19T16:36:04.078Z,19.67
2023-05-19T16:38:33.068Z,19.64
2023-05-19T16:41:01.711Z,19.51
2023-05-19T16:43:30.131Z,19.37
2023-05-19T16:45:58.465Z,19.38
2023-05-19T16:48:28.406Z,19.37
2023-05-19T16:50:57.332Z,19.39
2023-05-19T16:53:27.534Z,19.39
2023-05-19T16:55:56.422Z,19.04
2023-05-19T16:58:27.935Z,19.06
2023-05-19T17:00:57.817Z,19.11
2023-05-19T17:03:29.156Z,18.77
2023-05-19T17:05:57.599Z,18.82
2023-05-19T17:08:25.934Z,18.71
2023-05-19T17:10:54.494Z,18.79
2023-05-19T17:13:25.846Z,18.71
2023-05-19T17:15:54.321Z,18.82
2023-05-19T17:18:22.776Z,18.79
2023-05-19T17:20:52.422Z,18.83
2023-05-19T17:23:20.654Z,18.81
2023-05-19T17:25:49.614Z,18.77
2023-05-19T17:28:17.764Z,18.80
2023-05-19T17:30:46.660Z,18.73
2023-05-19T17:33:15.372Z,18.79
2023-05-19T17:35:43.694Z,18.76
2023-05-19T17:38:14.040Z,18.62
2023-05-19T17:40:42.343Z,18.57
2023-05-19T17:43:10.530Z,18.41
2023-05-19T17:45:39.779Z,18.52
2023-05-19T17:48:08.201Z,18.48
2023-05-19T17:50:37.927Z,18.48
2023-05-19T17:53:06.692Z,18.44
2023-05-19T17:55:37.611Z,18.44
2023-05-19T17:58:06.802Z,18.46
2023-05-19T18:00:35.817Z,18.47
2023-05-19T18:03:06.376Z,18.41
2023-05-19T18:05:35.267Z,18.43
2023-05-19T18:08:07.280Z,18.44
2023-05-19T18:10:40.838Z,18.50
2023-05-19T18:13:14.014Z,18.54
2023-05-19T18:15:42.624Z,18.36
2023-05-19T18:18:15.098Z,18.21
2023-05-19T18:20:45.530Z,18.27
2023-05-19T18:23:14.204Z,18.27
2023-05-19T18:25:50.414Z,18.23
2023-05-19T18:28:18.550Z,18.08
2023-05-19T18:30:46.976Z,18.13
2023-05-19T18:33:15.089Z,18.09
2023-05-19T18:35:47.314Z,18.04
2023-05-19T18:38:15.460Z,17.95
2023-05-19T18:40:45.490Z,17.92
2023-05-19T18:43:13.790Z,18.04
2023-05-19T18:45:42.327Z,17.93
2023-05-19T18:48:10.810Z,18.09
2023-05-19T18:50:39.188Z,17.87
2023-05-19T18:53:07.464Z,17.78
2023-05-19T18:55:38.301Z,17.76
2023-05-19T18:58:08.148Z,17.80
2023-05-19T19:00:36.977Z,17.73
2023-05-19T19:03:05.684Z,17.64
2023-05-19T19:05:33.943Z,17.56
2023-05-19T19:08:05.794Z,17.48
2023-05-19T19:10:38.953Z,17.55
2023-05-19T19:13:08.722Z,17.44
2023-05-19T19:15:37.895Z,17.26
2023-05-19T19:18:08.244Z,17.29
2023-05-19T19:20:38.237Z,17.22
2023-05-19T19:23:06.784Z,17.10
2023-05-19T19:25:36.084Z,17.09
2023-05-19T19:28:04.273Z,17.13
2023-05-19T19:30:34.635Z,17.11
2023-05-19T19:33:04.635Z,16.93
2023-05-19T19:35:33.809Z,16.85
2023-05-19T19:38:02.329Z,16.78
2023-05-19T19:40:32.451Z,16.65
2023-05-19T19:43:01.321Z,16.59
2023-05-19T19:45:29.768Z,16.45
2023-05-19T19:47:59.634Z,16.49
2023-05-19T19:50:29.411Z,16.41
2023-05-19T19:52:57.464Z,16.42
2023-05-19T19:55:25.600Z,16.39
2023-05-19T19:57:56.356Z,16.26
2023-05-19T20:00:25.689Z,16.31
2023-05-19T20:03:03.686Z,16.12
2023-05-19T20:05:34.582Z,16.06
2023-05-19T20:08:03.129Z,16.12
2023-05-19T20:10:31.886Z,16.03
2023-05-19T20:13:00.498Z,16.01
2023-05-19T20:15:29.186Z,15.87
2023-05-19T20:17:57.467Z,16.02
2023-05-19T20:20:25.729Z,15.96
2023-05-19T20:22:55.982Z,15.74
2023-05-19T20:25:24.218Z,15.79
2023-05-19T20:27:52.587Z,15.86
2023-05-19T20:30:21.580Z,15.66
2023-05-19T20:32:50.086Z,15.82
2023-05-19T20:35:19.347Z,15.64
2023-05-19T20:37:49.566Z,15.66
2023-05-19T20:40:19.687Z,15.49
2023-05-19T20:42:48.014Z,15.41
2023-05-19T20:45:16.563Z,15.40
2023-05-19T20:47:46.218Z,15.40
2023-05-19T20:50:14.768Z,15.41
2023-05-19T20:52:43.678Z,15.37
2023-05-19T20:55:12.203Z,15.38
2023-05-19T20:57:43.795Z,15.37
2023-05-19T21:00:12.952Z,15.38
2023-05-19T21:02:41.390Z,15.34
2023-05-19T21:05:10.088Z,15.27
2023-05-19T21:07:38.377Z,15.18
2023-05-19T21:10:07.803Z,15.20
2023-05-19T21:12:36.291Z,15.07
2023-05-19T21:15:08.035Z,15.02
2023-05-19T21:17:36.717Z,15.02
2023-05-19T21:20:09.761Z,14.97
2023-05-19T21:22:38.160Z,14.93
2023-05-19T21:25:07.766Z,14.85
2023-05-19T21:27:37.296Z,14.93
2023-05-19T21:30:09.631Z,14.98
2023-05-19T21:32:38.066Z,14.75
2023-05-19T21:35:07.198Z,14.71
2023-05-19T21:37:36.452Z,14.69
2023-05-19T21:40:05.018Z,14.59
2023-05-19T21:42:33.286Z,14.55
2023-05-19T21:45:01.847Z,14.55
2023-05-19T21:47:33.947Z,14.60
2023-05-19T21:50:02.520Z,14.54
2023-05-19T21:52:31.314Z,14.54
2023-05-19T21:54:59.677Z,14.55
2023-05-19T21:57:28.295Z,14.50
2023-05-19T21:59:56.488Z,14.46
2023-05-19T22:02:27.882Z,14.52
2023-05-19T22:05:01.198Z,14.45
2023-05-19T22:07:30.082Z,14.31
2023-05-19T22:09:58.724Z,14.31
2023-05-19T22:12:27.502Z,14.26
2023-05-19T22:14:56.152Z,14.37
2023-05-19T22:17:24.552Z,14.34
2023-05-19T22:19:53.082Z,14.21
2023-05-19T22:22:22.791Z,14.19
2023-05-19T22:24:51.895Z,14.22
2023-05-19T22:27:20.194Z,14.26
2023-05-19T22:29:49.736Z,14.11
2023-05-19T22:32:19.713Z,14.12
2023-05-19T22:34:50.599Z,14.12
2023-05-19T22:37:18.886Z,13.97
2023-05-19T22:39:48.569Z,13.90
2023-05-19T22:42:16.740Z,13.74
2023-05-19T22:44:45.457Z,13.81
2023-05-19T22:47:14.051Z,13.72
2023-05-19T22:49:42.578Z,13.61
2023-05-19T22:52:12.598Z,13.71
2023-05-19T22:54:41.053Z,13.73
2023-05-19T22:57:10.612Z,13.60
2023-05-19T22:59:39.979Z,13.62
2023-05-19T23:02:09.954Z,13.55
2023-05-19T23:04:38.834Z,13.52
2023-05-19T23:07:07.447Z,13.62
2023-05-19T23:09:35.727Z,13.52
2023-05-19T23:12:04.141Z,13.48
2023-05-19T23:14:34.124Z,13.51
2023-05-19T23:17:02.907Z,13.47
2023-05-19T23:19:32.012Z,13.33
2023-05-19T23:22:01.111Z,13.25
2023-05-19T23:24:29.921Z,13.25
2023-05-19T23:26:58.158Z,13.26
2023-05-19T23:29:26.636Z,13.15
2023-05-19T23:31:56.459Z,13.09
2023-05-19T23:34:25.048Z,12.99
2023-05-19T23:36:56.272Z,12.96
2023-05-19T23:39:25.593Z,12.94
2023-05-19T23:41:53.764Z,12.87
2023-05-19T23:44:21.860Z,12.93
2023-05-19T23:46:50.527Z,12.91
2023-05-19T23:49:20.455Z,12.90
2023-05-19T23:51:48.862Z,12.89
2023-05-19T23:54:17.043Z,12.76
2023-05-19T23:56:45.930Z,12.77
2023-05-19T23:59:14.360Z,12.67
